createdAt,value
2023-03-05T00:00:18.936Z,64.87
2023-03-05T00:02:46.942Z,63.97
2023-03-05T00:05:14.906Z,61.77
2023-03-05T00:07:42.859Z,66.67
2023-03-05T00:10:11.759Z,65.83
2023-03-05T00:12:39.668Z,60.60
2023-03-05T00:15:09.284Z,69.80
2023-03-05T00:17:38.576Z,66.57
2023-03-05T00:20:07.405Z,64.17
2023-03-05T00:22:35.741Z,68.07
2023-03-05T00:25:04.110Z,64.97
2023-03-05T00:27:32.094Z,62.43
2023-03-05T00:30:00.087Z,64.00
2023-03-05T00:32:28.171Z,64.50
2023-03-05T00:34:57.509Z,66.77
2023-03-05T00:37:25.423Z,66.70
2023-03-05T00:39:53.288Z,65.43
2023-03-05T00:42:21.188Z,67.67
2023-03-05T00:44:49.086Z,66.50
2023-03-05T00:47:18.410Z,69.67
2023-03-05T00:49:46.625Z,68.37
2023-03-05T00:52:15.908Z,68.47
2023-03-05T00:54:43.896Z,64.10
2023-03-05T00:57:11.816Z,66.77
2023-03-05T00:59:40.640Z,67.80
2023-03-05T01:02:08.563Z,60.83
2023-03-05T01:04:36.477Z,64.60
2023-03-05T01:07:06.617Z,64.67
2023-03-05T01:09:35.948Z,63.67
2023-03-05T01:12:03.962Z,68.33
2023-03-05T01:14:32.503Z,70.43
2023-03-05T01:17:00.415Z,66.47
2023-03-05T01:19:28.316Z,64.43
2023-03-05T01:21:56.304Z,64.77
2023-03-05T01:24:24.413Z,62.77
2023-03-05T01:26:53.771Z,65.87
2023-03-05T01:29:21.648Z,64.97
2023-03-05T01:31:49.854Z,60.87
2023-03-05T01:34:18.156Z,65.00
2023-03-05T01:36:46.087Z,62.67
2023-03-05T01:39:14.052Z,69.47
2023-03-05T01:41:42.002Z,65.77
2023-03-05T01:44:22.442Z,68.87
2023-03-05T01:46:50.744Z,63.70
2023-03-05T01:49:24.029Z,61.47
2023-03-05T01:52:02.773Z,63.63
2023-03-05T01:54:34.703Z,61.27
2023-03-05T01:57:08.761Z,55.07
2023-03-05T01:59:40.338Z,61.23
2023-03-05T02:02:09.079Z,61.03
2023-03-05T02:04:43.675Z,61.40
2023-03-05T02:07:12.725Z,55.87
2023-03-05T02:09:41.219Z,59.03
2023-03-05T02:12:11.863Z,60.80
2023-03-05T02:14:43.653Z,57.47
2023-03-05T02:17:12.197Z,57.07
2023-03-05T02:19:53.241Z,60.83
2023-03-05T02:22:25.162Z,61.80
2023-03-05T02:24:53.720Z,63.17
2023-03-05T02:27:27.268Z,58.83
2023-03-05T02:29:55.618Z,59.13
2023-03-05T02:32:23.562Z,58.17
2023-03-05T02:34:51.615Z,62.57
2023-03-05T02:37:19.802Z,60.77
2023-03-05T02:39:49.068Z,57.10
2023-03-05T02:42:17.042Z,61.63
2023-03-05T02:44:44.951Z,59.13
2023-03-05T02:47:12.824Z,67.40
2023-03-05T02:49:41.160Z,61.27
2023-03-05T02:52:09.329Z,57.40
2023-03-05T02:54:37.237Z,65.83
2023-03-05T02:57:06.611Z,57.03
2023-03-05T02:59:34.566Z,58.97
2023-03-05T03:02:03.130Z,61.40
2023-03-05T03:04:31.053Z,52.30
2023-03-05T03:06:59.117Z,59.90
2023-03-05T03:09:27.123Z,53.23
2023-03-05T03:11:55.116Z,61.27
2023-03-05T03:14:24.369Z,61.63
2023-03-05T03:16:52.338Z,56.17
2023-03-05T03:19:20.384Z,58.57
2023-03-05T03:21:49.925Z,56.43
2023-03-05T03:24:17.858Z,57.47
2023-03-05T03:26:46.518Z,60.90
2023-03-05T03:29:14.450Z,58.03
2023-03-05T03:31:44.951Z,60.50
2023-03-05T03:34:15.060Z,60.30
2023-03-05T03:36:43.709Z,54.80
2023-03-05T03:39:12.179Z,62.93
2023-03-05T03:41:43.439Z,59.90
2023-03-05T03:44:11.683Z,60.33
2023-03-05T03:46:40.384Z,58.17
2023-03-05T03:49:09.731Z,62.93
2023-03-05T03:51:37.656Z,59.93
2023-03-05T03:54:05.774Z,62.57
2023-03-05T03:56:33.685Z,56.67
2023-03-05T03:59:01.576Z,61.83
2023-03-05T04:01:29.644Z,64.20
2023-03-05T04:03:57.596Z,59.00
2023-03-05T04:06:27.017Z,57.77
2023-03-05T04:08:54.939Z,62.37
2023-03-05T04:11:23.049Z,59.50
2023-03-05T04:13:51.532Z,64.13
2023-03-05T04:16:20.629Z,58.77
2023-03-05T04:18:48.924Z,61.20
2023-03-05T04:21:16.927Z,61.83
2023-03-05T04:23:46.478Z,64.90
2023-03-05T04:26:14.400Z,56.70
2023-03-05T04:28:42.327Z,60.23
2023-03-05T04:31:10.341Z,63.87
2023-03-05T04:33:38.273Z,61.83
2023-03-05T04:36:06.962Z,65.97
2023-03-05T04:38:34.850Z,61.53
2023-03-05T04:41:04.274Z,62.43
2023-03-05T04:43:32.252Z,63.37
2023-03-05T04:46:00.145Z,61.27
2023-03-05T04:48:28.123Z,57.63
2023-03-05T04:50:57.944Z,60.33
2023-03-05T04:53:26.392Z,57.20
2023-03-05T04:55:54.533Z,62.47
2023-03-05T04:58:24.988Z,58.93
2023-03-05T05:00:52.966Z,57.87
2023-03-05T05:03:20.925Z,53.67
2023-03-05T05:05:56.143Z,57.13
2023-03-05T05:08:24.430Z,54.83
2023-03-05T05:11:00.461Z,50.10
2023-03-05T05:13:30.425Z,46.30
2023-03-05T05:15:59.072Z,56.67
2023-03-05T05:18:27.235Z,52.90
2023-03-05T05:20:55.181Z,52.80
2023-03-05T05:23:23.162Z,52.30
2023-03-05T05:25:57.699Z,53.10
2023-03-05T05:28:25.880Z,49.93
2023-03-05T05:30:55.669Z,47.63
2023-03-05T05:33:23.995Z,54.57
2023-03-05T05:35:52.257Z,45.70
2023-03-05T05:38:20.561Z,47.93
2023-03-05T05:40:48.486Z,49.20
2023-03-05T05:43:16.398Z,48.97
2023-03-05T05:45:45.203Z,45.60
2023-03-05T05:48:14.650Z,47.70
2023-03-05T05:50:42.593Z,45.10
2023-03-05T05:53:10.510Z,46.10
2023-03-05T05:55:41.395Z,51.37
2023-03-05T05:58:09.341Z,45.17
2023-03-05T06:00:37.252Z,43.20
2023-03-05T06:03:05.435Z,47.67
2023-03-05T06:05:34.801Z,54.27
2023-03-05T06:08:02.724Z,46.20
2023-03-05T06:10:30.648Z,49.83
2023-03-05T06:12:58.597Z,51.40
2023-03-05T06:15:26.488Z,47.13
2023-03-05T06:17:54.658Z,47.37
2023-03-05T06:20:23.190Z,47.77
2023-03-05T06:22:52.538Z,47.23
2023-03-05T06:25:20.587Z,45.67
2023-03-05T06:27:48.577Z,49.80
2023-03-05T06:30:16.739Z,45.93
2023-03-05T06:32:44.662Z,50.47
2023-03-05T06:35:14.098Z,49.00
2023-03-05T06:37:42.052Z,48.47
2023-03-05T06:40:13.257Z,48.07
2023-03-05T06:42:41.219Z,47.63
2023-03-05T06:45:10.774Z,50.23
2023-03-05T06:47:38.680Z,43.97
2023-03-05T06:50:07.716Z,46.63
2023-03-05T06:52:35.697Z,52.03
2023-03-05T06:55:04.293Z,44.83
2023-03-05T06:57:33.590Z,46.53
2023-03-05T07:00:01.501Z,48.40
2023-03-05T07:02:29.445Z,49.70
2023-03-05T07:04:57.400Z,47.73
2023-03-05T07:07:25.303Z,45.10
2023-03-05T07:09:53.833Z,46.70
2023-03-05T07:12:21.740Z,50.27
2023-03-05T07:14:51.197Z,44.60
2023-03-05T07:17:19.235Z,43.03
2023-03-05T07:19:47.226Z,46.97
2023-03-05T07:22:15.093Z,46.43
2023-03-05T07:24:43.015Z,48.13
2023-03-05T07:27:10.973Z,47.90
2023-03-05T07:29:38.984Z,52.80
2023-03-05T07:32:08.778Z,48.27
2023-03-05T07:34:38.712Z,49.33
2023-03-05T07:37:06.828Z,53.23
2023-03-05T07:39:34.756Z,52.63
2023-03-05T07:42:02.763Z,47.83
2023-03-05T07:44:47.738Z,46.03
2023-03-05T07:47:17.152Z,51.43
2023-03-05T07:49:45.066Z,49.23
2023-03-05T07:52:13.039Z,52.20
2023-03-05T07:54:41.149Z,49.80
2023-03-05T07:57:09.766Z,49.90
2023-03-05T07:59:39.080Z,51.70
2023-03-05T08:02:07.273Z,46.90
2023-03-05T08:04:36.676Z,50.83
2023-03-05T08:07:04.747Z,47.07
2023-03-05T08:09:32.707Z,51.33
2023-03-05T08:12:00.844Z,47.63
2023-03-05T08:14:28.991Z,49.00
2023-03-05T08:16:56.957Z,45.73
2023-03-05T08:19:24.806Z,49.00
2023-03-05T08:21:55.600Z,49.10
2023-03-05T08:24:29.409Z,55.57
2023-03-05T08:26:58.110Z,46.67
2023-03-05T08:29:26.531Z,51.37
2023-03-05T08:31:55.797Z,54.00
2023-03-05T08:34:23.709Z,53.20
2023-03-05T08:36:51.922Z,56.17
2023-03-05T08:39:21.402Z,49.87
2023-03-05T08:41:49.551Z,50.97
2023-03-05T08:44:17.471Z,51.53
2023-03-05T08:46:45.485Z,55.03
2023-03-05T08:49:13.388Z,58.43
2023-03-05T08:51:41.320Z,51.03
2023-03-05T08:54:10.382Z,53.60
2023-03-05T08:56:39.747Z,57.80
2023-03-05T08:59:08.723Z,52.97
2023-03-05T09:01:36.693Z,48.50
2023-03-05T09:04:05.044Z,59.70
2023-03-05T09:06:34.456Z,52.27
2023-03-05T09:09:02.374Z,51.50
2023-03-05T09:11:30.365Z,50.00
2023-03-05T09:13:59.671Z,55.93
2023-03-05T09:16:28.524Z,50.30
2023-03-05T09:18:56.447Z,54.33
2023-03-05T09:21:24.372Z,58.73
2023-03-05T09:23:52.614Z,55.03
2023-03-05T09:26:21.261Z,57.83
2023-03-05T09:28:49.633Z,58.70
2023-03-05T09:31:19.529Z,57.03
2023-03-05T09:33:48.915Z,56.80
2023-03-05T09:36:22.766Z,60.10
2023-03-05T09:38:51.213Z,56.37
2023-03-05T09:41:27.933Z,56.40
2023-03-05T09:44:03.993Z,50.73
2023-03-05T09:46:46.300Z,54.70
2023-03-05T09:49:19.102Z,58.23
2023-03-05T09:51:49.383Z,48.90
2023-03-05T09:54:21.307Z,50.13
2023-03-05T09:56:52.283Z,54.10
2023-03-05T09:59:28.739Z,54.00
2023-03-05T10:02:03.360Z,56.80
2023-03-05T10:04:43.885Z,60.40
2023-03-05T10:07:18.341Z,58.10
2023-03-05T10:09:52.316Z,55.07
2023-03-05T10:12:27.987Z,58.43
2023-03-05T10:14:56.262Z,58.37
2023-03-05T10:17:48.386Z,56.50
2023-03-05T10:20:42.010Z,55.47
2023-03-05T10:23:24.782Z,54.47
2023-03-05T10:26:28.276Z,61.10
2023-03-05T10:29:08.197Z,59.20
2023-03-05T10:31:53.445Z,56.87
2023-03-05T10:34:40.401Z,57.37
2023-03-05T10:37:21.402Z,62.90
2023-03-05T10:40:11.796Z,62.37
2023-03-05T10:42:48.373Z,51.60
2023-03-05T10:45:19.291Z,62.20
2023-03-05T10:47:52.759Z,57.90
2023-03-05T10:50:24.767Z,61.60
2023-03-05T10:53:05.926Z,59.47
2023-03-05T10:55:33.850Z,55.03
2023-03-05T10:58:02.507Z,58.43
2023-03-05T11:00:32.269Z,56.97
2023-03-05T11:03:02.609Z,56.50
2023-03-05T11:05:47.369Z,65.77
2023-03-05T11:08:28.776Z,64.73
2023-03-05T11:11:12.542Z,57.87
2023-03-05T11:13:56.967Z,56.07
2023-03-05T11:16:28.179Z,55.70
2023-03-05T11:19:18.630Z,63.53
2023-03-05T11:22:05.763Z,55.93
2023-03-05T11:24:33.890Z,58.20
2023-03-05T11:27:01.932Z,68.33
2023-03-05T11:29:32.295Z,57.93
2023-03-05T11:32:17.246Z,56.97
2023-03-05T11:34:45.476Z,59.80
2023-03-05T11:37:24.530Z,59.80
2023-03-05T11:40:17.206Z,61.20
2023-03-05T11:42:45.710Z,64.90
2023-03-05T11:45:19.202Z,58.70
2023-03-05T11:47:50.384Z,69.43
2023-03-05T11:50:23.013Z,58.33
2023-03-05T11:52:53.819Z,63.40
2023-03-05T11:55:28.277Z,57.43
2023-03-05T11:58:05.856Z,56.73
2023-03-05T12:00:37.963Z,59.35
2023-03-05T12:03:12.990Z,61.83
2023-03-05T12:05:44.641Z,57.30
2023-03-05T12:08:19.817Z,61.53
2023-03-05T12:10:47.949Z,59.83
2023-03-05T12:13:24.794Z,59.80
2023-03-05T12:16:05.242Z,63.00
2023-03-05T12:18:46.168Z,53.07
2023-03-05T12:21:26.105Z,65.68
2023-03-05T12:23:59.054Z,57.57
2023-03-05T12:26:56.209Z,63.90
2023-03-05T12:29:38.568Z,60.13
2023-03-05T12:32:28.957Z,57.63
2023-03-05T12:35:00.430Z,61.72
2023-03-05T12:38:25.606Z,58.17
2023-03-05T12:41:43.006Z,64.57
2023-03-05T12:44:19.420Z,57.87
2023-03-05T12:47:08.682Z,62.23
2023-03-05T12:49:40.649Z,62.22
2023-03-05T12:52:17.656Z,60.27
2023-03-05T12:54:45.590Z,56.10
2023-03-05T12:57:19.683Z,57.63
2023-03-05T12:59:51.486Z,62.50
2023-03-05T13:02:28.329Z,62.65
2023-03-05T13:05:02.054Z,53.50
2023-03-05T13:07:30.005Z,54.90
2023-03-05T13:09:59.809Z,60.57
2023-03-05T13:12:30.444Z,61.35
2023-03-05T13:15:04.556Z,53.37
2023-03-05T13:17:38.134Z,53.92
2023-03-05T13:23:18.286Z,53.35
2023-03-05T13:25:57.038Z,57.20
2023-03-05T13:28:25.516Z,55.38
2023-03-05T13:30:55.861Z,56.85
2023-03-05T13:33:27.523Z,56.00
2023-03-05T13:35:56.040Z,56.53
2023-03-05T13:38:30.961Z,60.08
2023-03-05T13:41:07.462Z,58.50
2023-03-05T13:43:35.861Z,55.17
2023-03-05T13:46:03.856Z,53.58
2023-03-05T13:48:31.865Z,57.50
2023-03-05T13:51:00.330Z,56.67
2023-03-05T13:53:31.386Z,56.60
2023-03-05T13:56:02.270Z,51.83
2023-03-05T13:58:47.406Z,52.65
2023-03-05T14:01:21.885Z,54.17
2023-03-05T14:03:52.058Z,52.92
2023-03-05T14:06:22.771Z,52.25
2023-03-05T14:08:53.771Z,56.15
2023-03-05T14:11:23.205Z,54.30
2023-03-05T14:14:04.164Z,57.85
2023-03-05T14:16:33.775Z,51.63
2023-03-05T14:19:03.440Z,51.30
2023-03-05T14:21:45.997Z,48.17
2023-03-05T14:24:22.140Z,51.35
2023-03-05T14:26:52.882Z,49.25
2023-03-05T14:29:24.275Z,49.67
2023-03-05T14:31:54.301Z,47.17
2023-03-05T14:34:27.171Z,52.30
2023-03-05T14:36:57.089Z,50.92
2023-03-05T14:39:31.824Z,52.70
2023-03-05T14:42:33.788Z,46.88
2023-03-05T14:45:03.221Z,43.15
2023-03-05T14:47:31.354Z,46.90
2023-03-05T14:49:59.267Z,51.05
2023-03-05T14:52:28.289Z,45.72
2023-03-05T14:54:57.758Z,45.38
2023-03-05T14:57:28.779Z,47.67
2023-03-05T14:59:56.847Z,45.65
2023-03-05T15:02:26.675Z,44.97
2023-03-05T15:04:54.661Z,50.20
2023-03-05T15:07:26.905Z,47.05
2023-03-05T15:09:55.005Z,45.03
2023-03-05T15:12:25.350Z,39.88
2023-03-05T15:14:53.972Z,39.92
2023-03-05T15:17:24.580Z,41.20
2023-03-05T15:19:53.817Z,44.28
2023-03-05T15:22:21.757Z,45.03
2023-03-05T15:24:49.825Z,45.13
2023-03-05T15:27:17.718Z,42.05
2023-03-05T15:29:46.990Z,43.83
2023-03-05T15:32:15.048Z,41.33
2023-03-05T15:34:43.184Z,43.13
2023-03-05T15:37:11.202Z,47.92
2023-03-05T15:39:39.175Z,46.78
2023-03-05T15:42:07.435Z,48.78
2023-03-05T15:44:35.421Z,50.30
2023-03-05T15:47:04.731Z,52.35
2023-03-05T15:49:32.685Z,49.00
2023-03-05T15:52:00.921Z,47.38
2023-03-05T15:54:28.961Z,44.95
2023-03-05T15:56:56.869Z,45.78
2023-03-05T15:59:25.236Z,50.92
2023-03-05T16:01:53.139Z,50.60
2023-03-05T16:04:22.469Z,46.25
2023-03-05T16:06:51.565Z,46.28
2023-03-05T16:09:21.817Z,50.30
2023-03-05T16:11:51.572Z,46.13
2023-03-05T16:14:23.638Z,47.47
2023-03-05T16:16:53.774Z,53.75
2023-03-05T16:19:25.493Z,50.58
2023-03-05T16:21:53.372Z,48.53
2023-03-05T16:24:21.266Z,50.97
2023-03-05T16:26:49.201Z,48.25
2023-03-05T16:29:17.094Z,44.53
2023-03-05T16:31:45.465Z,47.17
2023-03-05T16:34:16.241Z,52.67
2023-03-05T16:36:52.154Z,48.20
2023-03-05T16:39:20.940Z,47.88
2023-03-05T16:41:49.183Z,45.47
2023-03-05T16:44:17.138Z,49.42
2023-03-05T16:46:49.174Z,44.90
2023-03-05T16:49:17.805Z,47.08
2023-03-05T16:51:45.683Z,42.33
2023-03-05T16:54:14.981Z,47.08
2023-03-05T16:56:42.870Z,49.28
2023-03-05T16:59:11.680Z,48.63
2023-03-05T17:01:39.624Z,51.00
2023-03-05T17:04:08.411Z,50.10
2023-03-05T17:06:36.357Z,48.90
2023-03-05T17:09:04.841Z,55.60
2023-03-05T17:11:34.194Z,52.35
2023-03-05T17:14:03.979Z,48.53
2023-03-05T17:16:32.058Z,50.83
2023-03-05T17:19:00.003Z,50.80
2023-03-05T17:21:27.920Z,49.58
2023-03-05T17:23:56.826Z,53.92
2023-03-05T17:26:24.737Z,47.20
2023-03-05T17:28:54.623Z,53.55
2023-03-05T17:31:22.630Z,52.45
2023-03-05T17:33:50.872Z,52.83
2023-03-05T17:36:20.882Z,54.53
2023-03-05T17:38:50.170Z,55.25
2023-03-05T17:41:19.984Z,59.25
2023-03-05T17:43:47.937Z,59.80
2023-03-05T17:46:18.091Z,56.00
2023-03-05T17:48:46.265Z,52.05
2023-03-05T17:51:16.648Z,59.03
2023-03-05T17:53:44.841Z,55.47
2023-03-05T17:56:14.342Z,54.50
2023-03-05T17:58:42.488Z,61.33
2023-03-05T18:01:10.626Z,54.25
2023-03-05T18:03:40.766Z,56.92
2023-03-05T18:06:08.765Z,56.05
2023-03-05T18:08:36.679Z,56.90
2023-03-05T18:11:04.637Z,61.33
2023-03-05T18:13:32.556Z,58.08
2023-03-05T18:16:01.212Z,58.60
2023-03-05T18:18:29.255Z,55.90
2023-03-05T18:20:58.623Z,60.22
2023-03-05T18:23:26.488Z,61.53
2023-03-05T18:25:54.432Z,64.67
2023-03-05T18:28:22.337Z,65.37
2023-03-05T18:30:50.264Z,67.27
2023-03-05T18:33:21.205Z,57.67
2023-03-05T18:35:52.169Z,57.13
2023-03-05T18:38:22.798Z,56.70
2023-03-05T18:40:51.546Z,53.13
2023-03-05T18:43:20.736Z,58.05
2023-03-05T18:45:49.428Z,63.40
2023-03-05T18:48:17.527Z,64.13
2023-03-05T18:50:45.860Z,59.60
2023-03-05T18:53:16.898Z,64.30
2023-03-05T18:55:46.313Z,62.17
2023-03-05T18:58:15.493Z,63.30
2023-03-05T19:00:44.898Z,58.03
2023-03-05T19:03:13.271Z,60.13
2023-03-05T19:05:42.822Z,59.87
2023-03-05T19:08:11.080Z,58.23
2023-03-05T19:10:39.060Z,62.10
2023-03-05T19:13:24.120Z,62.20
2023-03-05T19:15:52.445Z,64.40
2023-03-05T19:18:20.739Z,67.53
2023-03-05T19:20:55.650Z,75.23
2023-03-05T19:23:23.599Z,58.63
2023-03-05T19:25:51.502Z,65.70
2023-03-05T19:28:21.271Z,67.77
2023-03-05T19:30:49.375Z,67.17
2023-03-05T19:33:17.322Z,65.57
2023-03-05T19:35:45.841Z,64.40
2023-03-05T19:38:13.805Z,68.13
2023-03-05T19:40:42.388Z,65.93
2023-03-05T19:43:10.294Z,63.17
2023-03-05T19:45:39.589Z,70.40
2023-03-05T19:48:08.528Z,70.00
2023-03-05T19:50:36.446Z,68.83
2023-03-05T19:53:04.344Z,63.77
2023-03-05T19:55:32.341Z,61.87
2023-03-05T19:58:00.218Z,67.00
2023-03-05T20:00:28.269Z,65.50
2023-03-05T20:02:58.879Z,69.03
2023-03-05T20:05:26.915Z,62.03
2023-03-05T20:07:54.881Z,66.37
2023-03-05T20:10:23.032Z,68.17
2023-03-05T20:12:51.379Z,63.67
2023-03-05T20:15:19.744Z,65.17
2023-03-05T20:17:47.900Z,62.47
2023-03-05T20:20:19.149Z,67.43
2023-03-05T20:22:48.286Z,63.67
2023-03-05T20:25:21.120Z,63.27
2023-03-05T20:27:49.104Z,62.90
2023-03-05T20:30:17.973Z,71.43
2023-03-05T20:32:46.072Z,60.33
2023-03-05T20:35:15.529Z,60.30
2023-03-05T20:38:00.299Z,60.63
2023-03-05T20:40:28.413Z,61.97
2023-03-05T20:42:56.358Z,65.53
2023-03-05T20:45:24.353Z,63.87
2023-03-05T20:47:52.294Z,64.77
2023-03-05T20:50:20.750Z,64.40
2023-03-05T20:52:50.033Z,61.70
2023-03-05T20:55:17.947Z,61.07
2023-03-05T20:57:46.302Z,58.90
2023-03-05T21:00:15.150Z,67.97
2023-03-05T21:02:43.079Z,63.53
2023-03-05T21:05:12.565Z,60.67
2023-03-05T21:07:40.498Z,64.17
2023-03-05T21:10:10.993Z,62.00
2023-03-05T21:12:39.004Z,64.73
2023-03-05T21:15:08.159Z,64.57
2023-03-05T21:17:36.116Z,65.07
2023-03-05T21:20:05.877Z,70.37
2023-03-05T21:22:34.012Z,63.90
2023-03-05T21:25:13.389Z,68.63
2023-03-05T21:27:43.070Z,66.30
2023-03-05T21:30:12.440Z,68.13
2023-03-05T21:32:40.442Z,64.93
2023-03-05T21:35:09.208Z,64.80
2023-03-05T21:37:42.412Z,72.47
2023-03-05T21:40:12.402Z,64.30
2023-03-05T21:42:40.375Z,61.77
2023-03-05T21:45:12.756Z,64.60
2023-03-05T21:47:41.128Z,61.40
2023-03-05T21:50:11.911Z,62.47
2023-03-05T21:52:40.568Z,64.70
2023-03-05T21:55:11.953Z,68.47
2023-03-05T21:57:39.884Z,70.03
2023-03-05T22:00:12.448Z,71.57
2023-03-05T22:02:41.814Z,64.30
2023-03-05T22:05:13.374Z,68.40
2023-03-05T22:07:41.510Z,65.80
2023-03-05T22:10:12.840Z,67.93
2023-03-05T22:12:53.202Z,72.43
2023-03-05T22:15:22.723Z,70.20
2023-03-05T22:17:50.649Z,64.23
2023-03-05T22:20:19.485Z,72.27
2023-03-05T22:22:47.784Z,69.13
2023-03-05T22:25:16.646Z,65.87
2023-03-05T22:27:45.309Z,69.30
2023-03-05T22:30:14.422Z,68.70
2023-03-05T22:32:43.810Z,67.60
2023-03-05T22:35:14.166Z,62.93
2023-03-05T22:37:42.452Z,65.17
2023-03-05T22:40:14.658Z,61.73
2023-03-05T22:42:42.657Z,66.30
2023-03-05T22:45:11.281Z,63.47
2023-03-05T22:47:39.211Z,63.60
2023-03-05T22:50:10.060Z,66.63
2023-03-05T22:52:38.002Z,60.03
2023-03-05T22:55:06.863Z,61.80
2023-03-05T22:57:34.859Z,65.37
2023-03-05T23:00:02.993Z,64.97
2023-03-05T23:02:31.216Z,63.13
2023-03-05T23:05:00.538Z,63.20
2023-03-05T23:07:32.778Z,64.50
2023-03-05T23:10:02.808Z,65.33
2023-03-05T23:12:32.977Z,60.77
2023-03-05T23:15:01.732Z,68.17
2023-03-05T23:17:30.182Z,60.47
2023-03-05T23:19:58.168Z,65.20
2023-03-05T23:22:26.072Z,69.07
2023-03-05T23:24:55.372Z,69.87
2023-03-05T23:27:23.362Z,67.50
2023-03-05T23:30:04.588Z,65.20
2023-03-05T23:32:32.878Z,75.20
2023-03-05T23:35:00.798Z,73.03
2023-03-05T23:37:28.696Z,72.03
2023-03-05T23:39:57.972Z,59.43
2023-03-05T23:42:25.823Z,72.47
2023-03-05T23:44:55.240Z,66.93
2023-03-05T23:47:23.180Z,68.20
2023-03-05T23:49:51.171Z,69.83
2023-03-05T23:52:19.049Z,66.00
2023-03-05T23:54:46.944Z,65.57
2023-03-05T23:57:16.223Z,70.40
2023-03-05T23:59:44.097Z,74.60
